Skip Navigation Links Skip Navigation Links

Current Weather

Dekalb-Peachtree, Atlanta

For information only: do not use for flight planning or navigation.
Latest weather
Observation time Tuesday, January 26, 2021 5:53 PM EST
Local time Tuesday, January 26, 2021 6:42 PM EST
Flight conditions Visual Meteorological Conditions
Winds
Wind direction West-Southwest (250°)
Wind speed 5 mph
Visibility 10 mi.
Sky condition
Ceiling 11,000 ft. broken clouds
Cloud layer broken clouds 11,000 ft.
Temperature 62°F
Dewpoint 44°F
Altimeter 29.93 in.Hg
Derived measurements
Relative humidity 52%
Density altitude 1335 ft.
Sea-level pressure 29.91 in.Hg
Remarks
Fully automated report.
Automated weather observing station with precipitation discriminator.
METAR KPDK 262253Z AUTO 25004KT 10SM BKN110 17/07 A2993 RMK AO2 SLP130 T01670067

Settings

Location code

InnerDrive.Weather 4.0.6770.0 Release CLR 4.0.30319.42000
Copyright ©2018 Inner Drive Technology. All rights reserved. Portions Copyright ©1986-2018 David Braverman.

Find weather

Site navigation


Skip Navigation Links

Place info

Page info

PayPal - The safer, easier way to pay online!

Return home.

Copyright ©2021 Inner Drive Technology. Purveyors of fine, hand-crafted computer software. Page printed 2021-01-26T23:42:32 UTC.